createdAt,value
2019-03-25T00:01:26.473Z,36.04
2019-03-25T00:03:54.914Z,36.05
2019-03-25T00:06:23.415Z,36.06
2019-03-25T00:09:04.517Z,36.07
2019-03-25T00:11:22.016Z,36.07
2019-03-25T00:13:50.452Z,36.04
2019-03-25T00:16:18.886Z,36.08
2019-03-25T00:18:47.363Z,36.06
2019-03-25T00:21:15.858Z,36.07
2019-03-25T00:23:44.295Z,36.06
2019-03-25T00:26:12.710Z,36.06
2019-03-25T00:28:41.140Z,36.05
2019-03-25T00:31:09.584Z,36.07
2019-03-25T00:33:38.004Z,36.07
2019-03-25T00:36:06.427Z,36.09
2019-03-25T00:38:34.953Z,36.10
2019-03-25T00:41:03.431Z,36.11
2019-03-25T00:43:31.828Z,36.11
2019-03-25T00:46:00.236Z,36.12
2019-03-25T00:48:28.684Z,36.10
2019-03-25T00:50:57.110Z,36.12
2019-03-25T00:53:25.564Z,36.11
2019-03-25T00:55:53.988Z,36.16
2019-03-25T00:58:22.397Z,36.16
2019-03-25T01:00:50.896Z,36.14
2019-03-25T01:03:19.348Z,36.14
2019-03-25T01:05:47.757Z,36.15
2019-03-25T01:08:16.173Z,36.18
2019-03-25T01:10:44.603Z,36.17
2019-03-25T01:13:13.012Z,36.19
2019-03-25T01:15:41.437Z,36.19
2019-03-25T01:18:16.887Z,36.20
2019-03-25T01:20:40.009Z,36.18
2019-03-25T01:23:08.432Z,36.20
2019-03-25T01:25:36.871Z,36.21
2019-03-25T01:28:05.369Z,36.19
2019-03-25T01:30:33.799Z,36.19
2019-03-25T01:33:02.217Z,36.21
2019-03-25T01:35:30.644Z,36.21
2019-03-25T01:37:59.057Z,36.23
2019-03-25T01:40:27.492Z,36.23
2019-03-25T01:42:55.896Z,36.24
2019-03-25T01:45:24.323Z,36.25
2019-03-25T01:47:52.740Z,36.25
2019-03-25T01:50:21.163Z,36.24
2019-03-25T01:52:49.569Z,36.27
2019-03-25T01:55:18.010Z,36.25
2019-03-25T01:57:46.423Z,36.25
2019-03-25T02:00:16.553Z,36.27
2019-03-25T02:02:45.157Z,36.27
2019-03-25T02:05:13.866Z,36.28
2019-03-25T02:07:42.449Z,36.27
2019-03-25T02:10:11.306Z,36.27
2019-03-25T02:12:39.752Z,36.30
2019-03-25T02:15:08.813Z,36.29
2019-03-25T02:17:37.222Z,36.32
2019-03-25T02:20:06.810Z,36.31
2019-03-25T02:22:35.296Z,36.32
2019-03-25T02:25:05.863Z,36.32
2019-03-25T02:27:34.306Z,36.35
2019-03-25T02:30:03.268Z,36.34
2019-03-25T02:32:31.703Z,36.36
2019-03-25T02:35:00.145Z,36.35
2019-03-25T02:37:28.563Z,36.36
2019-03-25T02:39:57.000Z,36.38
2019-03-25T02:42:25.437Z,36.38
2019-03-25T02:44:53.850Z,36.39
2019-03-25T02:47:24.299Z,36.40
2019-03-25T02:49:52.429Z,36.39
2019-03-25T02:52:20.862Z,36.40
2019-03-25T02:54:49.268Z,36.40
2019-03-25T02:57:17.693Z,36.41
2019-03-25T02:59:46.120Z,36.42
2019-03-25T03:02:14.523Z,36.43
2019-03-25T03:04:42.966Z,36.43
2019-03-25T03:07:11.390Z,36.44
2019-03-25T03:09:39.808Z,36.45
2019-03-25T03:12:08.233Z,36.45
2019-03-25T03:14:36.649Z,36.45
2019-03-25T03:17:05.119Z,36.47
2019-03-25T03:19:33.544Z,36.48
2019-03-25T03:22:01.981Z,36.47
2019-03-25T03:24:30.423Z,36.47
2019-03-25T03:26:58.828Z,36.47
2019-03-25T03:29:27.258Z,36.47
2019-03-25T03:31:55.695Z,36.49
2019-03-25T03:34:24.115Z,36.49
2019-03-25T03:36:52.549Z,36.52
2019-03-25T03:39:21.014Z,36.51
2019-03-25T03:41:49.405Z,36.50
2019-03-25T03:44:17.818Z,36.52
2019-03-25T03:46:46.258Z,36.53
2019-03-25T03:49:14.677Z,36.54
2019-03-25T03:51:43.186Z,36.56
2019-03-25T03:54:11.672Z,36.58
2019-03-25T03:56:40.177Z,36.57
2019-03-25T03:59:08.760Z,36.59
2019-03-25T04:01:37.205Z,36.59
2019-03-25T04:04:05.629Z,36.57
2019-03-25T04:06:34.069Z,36.59
2019-03-25T04:09:02.576Z,36.60
2019-03-25T04:11:30.997Z,36.61
2019-03-25T04:13:59.429Z,36.61
2019-03-25T04:16:27.835Z,36.63
2019-03-25T04:18:56.290Z,36.63
2019-03-25T04:21:24.708Z,36.64
2019-03-25T04:23:53.520Z,36.64
2019-03-25T04:26:28.419Z,36.64
2019-03-25T04:28:52.096Z,36.68
2019-03-25T04:31:20.493Z,36.63
2019-03-25T04:33:48.966Z,36.64
2019-03-25T04:36:17.430Z,36.65
2019-03-25T04:38:45.883Z,36.67
2019-03-25T04:41:14.296Z,36.68
2019-03-25T04:43:42.717Z,36.66
2019-03-25T04:46:11.122Z,36.67
2019-03-25T04:48:39.554Z,36.67
2019-03-25T04:51:08.413Z,36.68
2019-03-25T04:53:36.923Z,36.70
2019-03-25T04:56:05.398Z,36.70
2019-03-25T04:58:33.804Z,36.72
2019-03-25T05:01:02.244Z,36.74
2019-03-25T05:03:30.645Z,36.76
2019-03-25T05:05:59.087Z,36.76
2019-03-25T05:08:27.499Z,36.76
2019-03-25T05:10:55.931Z,36.78
2019-03-25T05:13:24.345Z,36.76
2019-03-25T05:15:52.785Z,36.75
2019-03-25T05:18:21.188Z,36.76
2019-03-25T05:20:49.595Z,36.75
2019-03-25T05:23:18.083Z,36.75
2019-03-25T05:25:46.487Z,36.75
2019-03-25T05:28:14.908Z,36.72
2019-03-25T05:30:43.336Z,36.73
2019-03-25T05:33:11.781Z,36.74
2019-03-25T05:35:40.225Z,36.72
2019-03-25T05:38:08.647Z,36.71
2019-03-25T05:40:37.066Z,36.70
2019-03-25T05:43:05.493Z,36.70
2019-03-25T05:45:33.917Z,36.70
2019-03-25T05:48:02.349Z,36.65
2019-03-25T05:50:30.822Z,36.69
2019-03-25T05:52:59.228Z,36.67
2019-03-25T05:55:27.667Z,36.66
2019-03-25T05:57:56.085Z,36.64
2019-03-25T06:00:26.148Z,36.65
2019-03-25T06:02:55.032Z,36.66
2019-03-25T06:05:23.480Z,36.63
2019-03-25T06:07:51.892Z,36.59
2019-03-25T06:10:20.324Z,36.57
2019-03-25T06:12:48.809Z,36.55
2019-03-25T06:15:17.782Z,36.47
2019-03-25T06:17:46.222Z,36.45
2019-03-25T06:20:14.884Z,36.46
2019-03-25T06:22:43.319Z,36.43
2019-03-25T06:25:11.980Z,36.42
2019-03-25T06:27:40.374Z,36.42
2019-03-25T06:30:10.452Z,36.43
2019-03-25T06:32:38.879Z,36.43
2019-03-25T06:35:08.972Z,36.41
2019-03-25T06:37:37.548Z,36.39
2019-03-25T06:40:09.242Z,36.39
2019-03-25T06:42:37.676Z,36.37
2019-03-25T06:45:08.530Z,36.40
2019-03-25T06:47:36.964Z,36.40
2019-03-25T06:50:08.005Z,36.38
2019-03-25T06:52:36.415Z,36.37
2019-03-25T06:55:06.400Z,36.39
2019-03-25T06:57:34.906Z,36.32
2019-03-25T07:00:05.326Z,36.32
2019-03-25T07:02:33.782Z,36.31
2019-03-25T07:05:02.228Z,36.30
2019-03-25T07:07:30.660Z,36.30
2019-03-25T07:09:59.076Z,36.32
2019-03-25T07:12:27.658Z,36.29
2019-03-25T07:14:56.240Z,36.27
2019-03-25T07:17:24.650Z,36.25
2019-03-25T07:19:53.108Z,36.25
2019-03-25T07:22:21.511Z,36.24
2019-03-25T07:24:50.014Z,36.19
2019-03-25T07:27:18.347Z,36.18
2019-03-25T07:29:46.792Z,36.15
2019-03-25T07:32:15.220Z,36.13
2019-03-25T07:34:43.654Z,36.07
2019-03-25T07:37:12.113Z,36.03
2019-03-25T07:39:40.518Z,35.99
2019-03-25T07:42:08.936Z,35.95
2019-03-25T07:44:37.370Z,35.92
2019-03-25T07:47:05.855Z,35.85
2019-03-25T07:49:34.304Z,35.79
2019-03-25T07:52:02.719Z,35.75
2019-03-25T07:54:31.142Z,35.67
2019-03-25T07:56:59.579Z,35.59
2019-03-25T07:59:28.037Z,35.51
2019-03-25T08:01:56.445Z,35.41
2019-03-25T08:04:24.838Z,35.28
2019-03-25T08:06:53.285Z,35.18
2019-03-25T08:09:21.723Z,35.03
2019-03-25T08:11:50.137Z,34.85
2019-03-25T08:14:18.547Z,34.72
2019-03-25T08:16:47.010Z,34.51
2019-03-25T08:19:15.454Z,34.36
2019-03-25T08:21:43.866Z,34.25
2019-03-25T08:24:12.417Z,34.15
2019-03-25T08:26:42.888Z,33.86
2019-03-25T08:29:11.444Z,33.61
2019-03-25T08:31:39.846Z,33.49
2019-03-25T08:34:08.281Z,33.50
2019-03-25T08:36:36.702Z,33.48
2019-03-25T08:39:06.577Z,33.37
2019-03-25T08:41:35.080Z,33.24
2019-03-25T08:44:03.522Z,33.23
2019-03-25T08:46:31.986Z,33.24
2019-03-25T08:49:00.426Z,33.24
2019-03-25T08:51:28.861Z,33.30
2019-03-25T08:53:57.281Z,33.35
2019-03-25T08:56:25.685Z,33.39
2019-03-25T08:58:54.125Z,33.47
2019-03-25T09:01:22.703Z,33.48
2019-03-25T09:03:51.131Z,33.51
2019-03-25T09:06:19.544Z,33.58
2019-03-25T09:08:47.982Z,33.63
2019-03-25T09:11:16.395Z,33.67
2019-03-25T09:13:44.825Z,33.68
2019-03-25T09:16:13.219Z,33.70
2019-03-25T09:18:41.623Z,33.70
2019-03-25T09:21:10.065Z,33.67
2019-03-25T09:23:38.585Z,33.63
2019-03-25T09:26:07.004Z,33.60
2019-03-25T09:28:35.403Z,33.59
2019-03-25T09:31:09.994Z,33.51
2019-03-25T09:33:38.473Z,33.49
2019-03-25T09:36:07.096Z,33.38
2019-03-25T09:38:35.572Z,33.14
2019-03-25T09:41:04.085Z,32.97
2019-03-25T09:43:32.534Z,32.94
2019-03-25T09:46:01.036Z,32.99
2019-03-25T09:48:29.467Z,32.95
2019-03-25T09:50:57.887Z,32.78
2019-03-25T09:53:26.459Z,32.55
2019-03-25T09:55:54.828Z,32.53
2019-03-25T09:58:23.240Z,32.54
2019-03-25T10:00:52.262Z,32.51
2019-03-25T10:03:20.756Z,32.46
2019-03-25T10:05:49.550Z,32.58
2019-03-25T10:08:17.960Z,32.67
2019-03-25T10:10:46.402Z,32.60
2019-03-25T10:13:14.814Z,32.66
2019-03-25T10:15:43.236Z,32.53
2019-03-25T10:18:11.672Z,32.20
2019-03-25T10:20:40.071Z,31.78
2019-03-25T10:23:08.746Z,31.34
2019-03-25T10:25:37.164Z,31.00
2019-03-25T10:28:05.622Z,30.77
2019-03-25T10:30:34.067Z,30.50
2019-03-25T10:33:02.550Z,30.44
2019-03-25T10:35:30.997Z,30.40
2019-03-25T10:37:59.396Z,30.23
2019-03-25T10:40:27.806Z,29.98
2019-03-25T10:42:56.227Z,29.91
2019-03-25T10:45:24.644Z,29.95
2019-03-25T10:47:53.066Z,30.09
2019-03-25T10:50:21.480Z,30.18
2019-03-25T10:52:49.910Z,30.13
2019-03-25T10:55:18.350Z,30.18
2019-03-25T10:57:46.750Z,30.18
2019-03-25T11:00:16.024Z,29.98
2019-03-25T11:02:44.621Z,29.59
2019-03-25T11:05:14.211Z,29.39
2019-03-25T11:10:11.507Z,28.77
2019-03-25T11:12:39.958Z,28.63
2019-03-25T11:15:09.698Z,28.58
2019-03-25T11:17:38.326Z,28.73
2019-03-25T11:20:08.590Z,28.97
2019-03-25T11:22:37.080Z,29.02
2019-03-25T11:25:07.219Z,28.92
2019-03-25T11:27:35.720Z,28.63
2019-03-25T11:30:06.653Z,28.47
2019-03-25T11:32:35.084Z,28.31
2019-03-25T11:35:05.722Z,28.12
2019-03-25T11:37:34.150Z,27.82
2019-03-25T11:40:02.957Z,27.65
2019-03-25T11:42:31.450Z,27.84
2019-03-25T11:44:59.820Z,28.04
2019-03-25T11:47:28.256Z,27.80
2019-03-25T11:49:56.684Z,28.03
2019-03-25T11:52:25.188Z,27.72
2019-03-25T11:54:53.619Z,28.23
2019-03-25T11:57:22.053Z,27.61
2019-03-25T11:59:50.490Z,27.24
2019-03-25T12:02:19.050Z,27.66
2019-03-25T12:04:47.493Z,27.29
2019-03-25T12:07:15.923Z,26.90
2019-03-25T12:09:44.363Z,26.78
2019-03-25T12:12:12.787Z,26.70
2019-03-25T12:14:41.211Z,26.69
2019-03-25T12:17:09.651Z,26.96
2019-03-25T12:19:38.068Z,27.63
2019-03-25T12:22:06.516Z,27.89
2019-03-25T12:24:34.946Z,28.13
2019-03-25T12:27:03.436Z,28.36
2019-03-25T12:29:31.865Z,28.53
2019-03-25T12:32:00.301Z,28.57
2019-03-25T12:34:28.861Z,28.71
2019-03-25T12:36:57.231Z,28.81
2019-03-25T12:39:25.664Z,28.92
2019-03-25T12:41:54.135Z,29.03
2019-03-25T12:44:22.562Z,29.11
2019-03-25T12:46:50.982Z,29.27
2019-03-25T12:49:19.438Z,29.47
2019-03-25T12:51:48.538Z,29.55
2019-03-25T12:54:17.168Z,29.70
2019-03-25T12:56:45.591Z,29.69
2019-03-25T12:59:14.020Z,29.82
2019-03-25T13:01:52.508Z,29.89
2019-03-25T13:04:12.610Z,29.76
2019-03-25T13:06:41.046Z,29.44
2019-03-25T13:09:09.567Z,29.18
2019-03-25T13:11:38.005Z,28.83
2019-03-25T13:14:06.521Z,28.77
2019-03-25T13:16:35.047Z,28.92
2019-03-25T13:19:03.484Z,29.08
2019-03-25T13:21:32.032Z,29.30
2019-03-25T13:24:00.447Z,29.42
2019-03-25T13:26:28.880Z,29.59
2019-03-25T13:29:01.984Z,29.66
2019-03-25T13:31:27.477Z,29.51
2019-03-25T13:33:55.948Z,29.70
2019-03-25T13:36:24.344Z,29.81
2019-03-25T13:38:52.783Z,30.04
2019-03-25T13:41:21.205Z,30.09
2019-03-25T13:43:49.657Z,30.13
2019-03-25T13:46:18.090Z,30.37
2019-03-25T13:48:46.507Z,30.41
2019-03-25T13:51:14.938Z,30.47
2019-03-25T13:53:43.369Z,30.53
2019-03-25T13:56:11.832Z,30.53
2019-03-25T13:58:40.234Z,30.51
2019-03-25T14:01:08.662Z,30.60
2019-03-25T14:03:37.184Z,30.64
2019-03-25T14:06:05.903Z,30.72
2019-03-25T14:08:34.325Z,30.68
2019-03-25T14:11:02.754Z,30.72
2019-03-25T14:13:31.177Z,30.71
2019-03-25T14:15:59.893Z,30.71
2019-03-25T14:18:28.300Z,30.73
2019-03-25T14:20:56.775Z,30.79
2019-03-25T14:23:25.145Z,30.87
2019-03-25T14:25:53.585Z,30.86
2019-03-25T14:28:22.016Z,30.92
2019-03-25T14:30:50.531Z,30.99
2019-03-25T14:33:18.967Z,31.02
2019-03-25T14:35:47.380Z,31.08
2019-03-25T14:38:15.820Z,31.10
2019-03-25T14:40:44.242Z,31.12
2019-03-25T14:43:12.656Z,31.13
2019-03-25T14:45:41.112Z,31.10
2019-03-25T14:48:09.542Z,31.12
2019-03-25T14:50:38.000Z,31.17
2019-03-25T14:53:06.491Z,31.20
2019-03-25T14:55:34.928Z,31.18
2019-03-25T14:58:03.330Z,31.20
2019-03-25T15:00:31.788Z,31.23
2019-03-25T15:03:00.195Z,31.24
2019-03-25T15:05:28.634Z,31.26
2019-03-25T15:07:57.051Z,31.28
2019-03-25T15:10:25.498Z,31.09
2019-03-25T15:12:53.906Z,30.96
2019-03-25T15:15:22.470Z,30.97
2019-03-25T15:17:50.905Z,30.97
2019-03-25T15:20:19.314Z,30.81
2019-03-25T15:22:47.770Z,30.86
2019-03-25T15:25:16.410Z,30.92
2019-03-25T15:27:44.863Z,30.86
2019-03-25T15:30:14.213Z,30.81
2019-03-25T15:32:43.192Z,30.89
2019-03-25T15:35:11.934Z,30.83
2019-03-25T15:37:40.399Z,30.81
2019-03-25T15:40:13.509Z,30.84
2019-03-25T15:42:42.311Z,30.77
2019-03-25T15:45:11.270Z,30.80
2019-03-25T15:47:40.478Z,30.83
2019-03-25T15:50:09.924Z,30.91
2019-03-25T15:52:39.165Z,30.79
2019-03-25T15:55:08.032Z,30.74
2019-03-25T15:57:36.443Z,30.76
2019-03-25T16:00:07.941Z,30.74
2019-03-25T16:02:36.372Z,30.74
2019-03-25T16:05:06.225Z,30.81
2019-03-25T16:07:34.822Z,31.09
2019-03-25T16:10:04.770Z,31.40
2019-03-25T16:12:33.216Z,31.57
2019-03-25T16:15:01.650Z,31.68
2019-03-25T16:17:30.061Z,31.78
2019-03-25T16:19:58.506Z,31.82
2019-03-25T16:22:26.912Z,31.85
2019-03-25T16:24:55.433Z,31.95
2019-03-25T16:27:23.869Z,31.96
2019-03-25T16:29:52.308Z,32.03
2019-03-25T16:32:20.746Z,32.08
2019-03-25T16:34:49.173Z,32.13
2019-03-25T16:37:17.592Z,32.18
2019-03-25T16:39:46.038Z,32.22
2019-03-25T16:42:14.459Z,32.28
2019-03-25T16:44:42.908Z,32.33
2019-03-25T16:47:11.359Z,32.38
2019-03-25T16:49:39.777Z,32.44
2019-03-25T16:52:08.275Z,32.46
2019-03-25T16:54:36.735Z,32.54
2019-03-25T16:57:05.227Z,32.59
2019-03-25T16:59:33.671Z,32.64
2019-03-25T17:02:02.125Z,32.70
2019-03-25T17:04:30.563Z,32.72
2019-03-25T17:06:59.001Z,32.77
2019-03-25T17:09:27.409Z,32.76
2019-03-25T17:11:55.835Z,32.83
2019-03-25T17:14:24.283Z,32.86
2019-03-25T17:16:52.703Z,32.89
2019-03-25T17:19:21.188Z,32.91
2019-03-25T17:21:57.728Z,32.94
2019-03-25T17:24:19.735Z,32.97
2019-03-25T17:26:48.193Z,32.99
2019-03-25T17:29:16.597Z,33.00
2019-03-25T17:31:45.031Z,33.03
2019-03-25T17:34:13.462Z,33.06
2019-03-25T17:36:41.881Z,33.10
2019-03-25T17:39:10.298Z,33.13
2019-03-25T17:41:38.726Z,33.11
2019-03-25T17:44:07.141Z,33.17
2019-03-25T17:46:35.651Z,33.16
2019-03-25T17:49:04.065Z,33.18
2019-03-25T17:51:32.487Z,33.20
2019-03-25T17:54:00.911Z,33.17
2019-03-25T17:56:29.314Z,33.21
2019-03-25T17:58:57.749Z,33.21
2019-03-25T18:01:32.293Z,33.21
2019-03-25T18:03:57.616Z,33.24
2019-03-25T18:06:26.181Z,33.27
2019-03-25T18:08:54.739Z,33.30
2019-03-25T18:11:23.140Z,33.36
2019-03-25T18:13:51.610Z,33.40
2019-03-25T18:16:20.026Z,33.43
2019-03-25T18:18:48.437Z,33.48
2019-03-25T18:21:16.881Z,33.49
2019-03-25T18:23:45.290Z,33.54
2019-03-25T18:26:13.740Z,33.59
2019-03-25T18:28:42.203Z,33.61
2019-03-25T18:31:10.728Z,33.66
2019-03-25T18:33:39.167Z,33.69
2019-03-25T18:36:07.577Z,33.73
2019-03-25T18:38:36.021Z,33.77
2019-03-25T18:41:04.436Z,33.82
2019-03-25T18:43:32.940Z,33.84
2019-03-25T18:46:01.356Z,33.87
2019-03-25T18:48:29.873Z,33.92
2019-03-25T18:50:58.291Z,33.93
2019-03-25T18:53:26.693Z,33.94
2019-03-25T18:55:55.336Z,33.95
2019-03-25T18:58:23.835Z,33.95
2019-03-25T19:00:52.263Z,33.97
2019-03-25T19:03:20.843Z,33.99
2019-03-25T19:05:49.614Z,34.02
2019-03-25T19:08:19.098Z,34.04
2019-03-25T19:10:47.510Z,34.06
2019-03-25T19:13:15.939Z,34.08
2019-03-25T19:15:44.402Z,34.09
2019-03-25T19:18:12.821Z,34.12
2019-03-25T19:20:41.268Z,34.13
2019-03-25T19:23:09.685Z,34.15
2019-03-25T19:25:38.142Z,34.15
2019-03-25T19:28:06.644Z,34.16
2019-03-25T19:30:35.061Z,34.18
2019-03-25T19:33:03.577Z,34.20
2019-03-25T19:35:31.980Z,34.22
2019-03-25T19:38:00.491Z,34.23
2019-03-25T19:40:28.946Z,34.27
2019-03-25T19:42:57.436Z,34.29
2019-03-25T19:45:25.850Z,34.30
2019-03-25T19:47:54.250Z,34.31
2019-03-25T19:50:22.864Z,34.34
2019-03-25T19:52:51.270Z,34.36
2019-03-25T19:55:19.706Z,34.40
2019-03-25T19:57:48.142Z,34.43
2019-03-25T20:00:19.644Z,34.42
2019-03-25T20:02:48.035Z,34.43
2019-03-25T20:05:16.457Z,34.46
2019-03-25T20:07:44.884Z,34.48
2019-03-25T20:10:28.080Z,34.53
2019-03-25T20:12:57.017Z,34.52
2019-03-25T20:15:25.394Z,34.57
2019-03-25T20:17:53.843Z,34.59
2019-03-25T20:20:22.255Z,34.62
2019-03-25T20:22:50.688Z,34.64
2019-03-25T20:25:19.148Z,34.65
2019-03-25T20:27:47.522Z,34.67
2019-03-25T20:30:16.133Z,34.68
2019-03-25T20:32:44.687Z,34.72
2019-03-25T20:35:13.119Z,34.74
2019-03-25T20:37:41.604Z,34.73
2019-03-25T20:40:10.705Z,34.75
2019-03-25T20:42:39.093Z,34.78
2019-03-25T20:45:08.569Z,34.80
2019-03-25T20:47:37.015Z,34.82
2019-03-25T20:50:08.665Z,34.87
2019-03-25T20:52:37.096Z,34.86
2019-03-25T20:55:07.839Z,34.88
2019-03-25T20:57:36.267Z,34.92
2019-03-25T21:00:07.174Z,34.90
2019-03-25T21:02:44.946Z,34.91
2019-03-25T21:05:07.012Z,34.92
2019-03-25T21:07:35.402Z,34.93
2019-03-25T21:10:06.372Z,34.94
2019-03-25T21:12:34.845Z,34.94
2019-03-25T21:15:04.357Z,34.96
2019-03-25T21:17:32.782Z,34.97
2019-03-25T21:20:01.267Z,34.96
2019-03-25T21:22:29.771Z,34.97
2019-03-25T21:24:58.204Z,34.98
2019-03-25T21:27:26.641Z,34.99
2019-03-25T21:29:55.061Z,35.03
2019-03-25T21:32:23.588Z,35.01
2019-03-25T21:34:52.091Z,35.02
2019-03-25T21:37:20.468Z,35.03
2019-03-25T21:39:49.032Z,35.05
2019-03-25T21:42:17.525Z,35.02
2019-03-25T21:44:46.049Z,35.08
2019-03-25T21:47:14.470Z,35.09
2019-03-25T21:49:42.899Z,35.10
2019-03-25T21:52:11.363Z,35.09
2019-03-25T21:54:39.834Z,35.11
2019-03-25T21:57:08.232Z,35.11
2019-03-25T21:59:36.666Z,35.11
2019-03-25T22:02:05.075Z,35.12
2019-03-25T22:04:33.513Z,35.11
2019-03-25T22:07:01.945Z,35.10
2019-03-25T22:09:30.355Z,35.08
2019-03-25T22:11:58.776Z,35.08
2019-03-25T22:14:27.203Z,35.09
2019-03-25T22:16:55.643Z,35.09
2019-03-25T22:19:24.096Z,35.10
2019-03-25T22:21:52.501Z,35.11
2019-03-25T22:24:20.946Z,35.11
2019-03-25T22:26:49.373Z,35.12
2019-03-25T22:29:17.889Z,35.13
2019-03-25T22:31:46.325Z,35.13
2019-03-25T22:34:14.769Z,35.15
2019-03-25T22:36:43.193Z,35.15
2019-03-25T22:39:11.620Z,35.15
2019-03-25T22:41:40.213Z,35.16
2019-03-25T22:44:08.654Z,35.16
2019-03-25T22:46:37.049Z,35.16
2019-03-25T22:49:05.560Z,35.15
2019-03-25T22:51:33.957Z,35.14
2019-03-25T22:54:02.396Z,35.17
2019-03-25T22:56:30.839Z,35.18
2019-03-25T22:58:59.247Z,35.19
2019-03-25T23:01:27.901Z,35.19
2019-03-25T23:03:56.297Z,35.17
2019-03-25T23:06:24.737Z,35.19
2019-03-25T23:08:53.147Z,35.20
2019-03-25T23:11:21.585Z,35.22
2019-03-25T23:13:50.066Z,35.22
2019-03-25T23:16:18.463Z,35.22
2019-03-25T23:18:46.874Z,35.25
2019-03-25T23:21:15.310Z,35.26
2019-03-25T23:23:43.763Z,35.25
2019-03-25T23:26:12.163Z,35.27
2019-03-25T23:28:40.590Z,35.28
2019-03-25T23:31:09.071Z,35.27
2019-03-25T23:33:37.508Z,35.31
2019-03-25T23:36:05.906Z,35.31
2019-03-25T23:38:34.349Z,35.31
2019-03-25T23:41:02.802Z,35.31
2019-03-25T23:43:31.233Z,35.31
2019-03-25T23:45:59.644Z,35.33
2019-03-25T23:48:28.082Z,35.34
2019-03-25T23:50:56.490Z,35.35
2019-03-25T23:53:24.918Z,35.37
2019-03-25T23:55:53.359Z,35.38
2019-03-25T23:58:21.763Z,35.38
